createdAt,value
2017-07-26T00:01:10.172Z,15.80
2017-07-26T00:03:37.653Z,15.80
2017-07-26T00:06:05.168Z,15.80
2017-07-26T00:08:32.652Z,15.80
2017-07-26T00:11:00.129Z,15.70
2017-07-26T00:13:27.651Z,15.70
2017-07-26T00:15:55.139Z,15.70
2017-07-26T00:18:22.647Z,15.70
2017-07-26T00:20:50.146Z,15.70
2017-07-26T00:23:17.660Z,15.70
2017-07-26T00:25:45.164Z,15.80
2017-07-26T00:28:12.676Z,15.80
2017-07-26T00:30:40.169Z,15.80
2017-07-26T00:33:07.672Z,15.80
2017-07-26T00:35:35.162Z,15.80
2017-07-26T00:38:02.698Z,16.00
2017-07-26T00:40:30.182Z,16.00
2017-07-26T00:42:57.659Z,15.90
2017-07-26T00:45:25.177Z,15.90
2017-07-26T00:47:52.671Z,16.00
2017-07-26T00:50:20.173Z,16.00
2017-07-26T00:52:48.429Z,15.90
2017-07-26T00:55:16.705Z,15.90
2017-07-26T00:57:44.951Z,15.90
2017-07-26T01:00:12.451Z,15.90
2017-07-26T01:02:39.932Z,16.00
2017-07-26T01:05:08.200Z,15.90
2017-07-26T01:07:36.462Z,15.90
2017-07-26T01:10:03.994Z,15.90
2017-07-26T01:12:31.491Z,15.90
2017-07-26T01:14:58.979Z,15.90
2017-07-26T01:17:26.489Z,16.00
2017-07-26T01:19:53.964Z,16.00
2017-07-26T01:22:21.470Z,16.00
2017-07-26T01:24:48.950Z,16.00
2017-07-26T01:27:17.225Z,15.90
2017-07-26T01:29:45.481Z,15.90
2017-07-26T01:32:12.990Z,15.90
2017-07-26T01:34:40.472Z,15.90
2017-07-26T01:37:07.972Z,15.90
2017-07-26T01:39:35.474Z,15.80
2017-07-26T01:42:02.981Z,15.80
2017-07-26T01:44:30.479Z,15.80
2017-07-26T01:46:57.961Z,15.70
2017-07-26T01:49:25.472Z,15.70
2017-07-26T01:51:52.964Z,15.80
2017-07-26T01:54:21.257Z,15.70
2017-07-26T01:56:48.744Z,15.60
2017-07-26T01:59:16.265Z,15.80
2017-07-26T02:01:43.757Z,15.80
2017-07-26T02:04:11.268Z,15.70
2017-07-26T02:06:38.760Z,15.60
2017-07-26T02:09:06.268Z,15.70
2017-07-26T02:11:34.516Z,15.70
2017-07-26T02:14:02.025Z,15.60
2017-07-26T02:16:29.528Z,15.60
2017-07-26T02:18:57.791Z,15.70
2017-07-26T02:21:25.285Z,15.60
2017-07-26T02:23:52.796Z,15.60
2017-07-26T02:26:20.288Z,15.70
2017-07-26T02:28:47.810Z,15.60
2017-07-26T02:31:15.316Z,15.60
2017-07-26T02:33:42.800Z,15.60
2017-07-26T02:36:10.308Z,15.60
2017-07-26T02:38:37.796Z,15.60
2017-07-26T02:41:05.291Z,15.60
2017-07-26T02:43:32.784Z,15.60
2017-07-26T02:46:00.288Z,15.60
2017-07-26T02:48:27.768Z,15.60
2017-07-26T02:50:55.292Z,15.50
2017-07-26T02:53:22.772Z,15.50
2017-07-26T02:55:51.044Z,15.50
2017-07-26T02:58:18.531Z,15.40
2017-07-26T03:00:46.048Z,15.50
2017-07-26T03:03:13.550Z,15.40
2017-07-26T03:05:41.062Z,15.50
2017-07-26T03:08:08.545Z,15.40
2017-07-26T03:10:36.809Z,15.50
2017-07-26T03:13:04.300Z,15.50
2017-07-26T03:15:31.824Z,15.50
2017-07-26T03:17:59.324Z,15.40
2017-07-26T03:20:26.813Z,15.50
2017-07-26T03:22:54.323Z,15.50
2017-07-26T03:25:22.572Z,15.40
2017-07-26T03:27:50.071Z,15.40
2017-07-26T03:30:17.564Z,15.40
2017-07-26T03:32:45.063Z,15.50
2017-07-26T03:35:12.547Z,15.50
2017-07-26T03:37:40.815Z,15.50
2017-07-26T03:40:08.303Z,15.50
2017-07-26T03:42:35.807Z,15.50
2017-07-26T03:45:03.300Z,15.50
2017-07-26T03:47:30.804Z,15.50
2017-07-26T03:49:58.291Z,15.40
2017-07-26T03:52:25.782Z,15.50
2017-07-26T03:54:53.272Z,15.40
2017-07-26T03:57:20.776Z,15.40
2017-07-26T03:59:48.260Z,15.50
2017-07-26T04:02:15.774Z,15.50
2017-07-26T04:04:43.252Z,15.60
2017-07-26T04:07:10.725Z,15.60
2017-07-26T04:09:38.993Z,15.60
2017-07-26T04:12:06.481Z,15.50
2017-07-26T04:14:33.993Z,15.60
2017-07-26T04:17:01.472Z,15.60
2017-07-26T04:19:28.985Z,15.60
2017-07-26T04:21:56.477Z,15.50
2017-07-26T04:24:23.975Z,15.60
2017-07-26T04:26:51.492Z,15.60
2017-07-26T04:29:19.008Z,15.60
2017-07-26T04:31:46.492Z,15.60
2017-07-26T04:34:14.000Z,15.60
2017-07-26T04:36:42.246Z,15.60
2017-07-26T04:39:09.763Z,15.60
2017-07-26T04:41:37.251Z,15.70
2017-07-26T04:44:05.503Z,15.70
2017-07-26T04:46:33.012Z,15.70
2017-07-26T04:49:00.492Z,15.80
2017-07-26T04:51:27.996Z,15.70
2017-07-26T04:53:55.485Z,15.70
2017-07-26T04:56:23.018Z,15.70
2017-07-26T04:58:50.507Z,15.70
2017-07-26T05:01:18.012Z,15.70
2017-07-26T05:03:45.489Z,15.60
2017-07-26T05:06:12.999Z,15.60
2017-07-26T05:08:40.515Z,15.60
2017-07-26T05:11:08.027Z,15.60
2017-07-26T05:13:35.518Z,15.60
2017-07-26T05:16:03.196Z,15.60
2017-07-26T05:18:30.700Z,15.70
2017-07-26T05:20:58.200Z,15.60
2017-07-26T05:23:25.692Z,15.60
2017-07-26T05:25:53.969Z,15.60
2017-07-26T05:28:21.456Z,15.60
2017-07-26T05:30:48.948Z,15.60
2017-07-26T05:33:16.458Z,15.70
2017-07-26T05:35:43.954Z,15.70
2017-07-26T05:38:11.461Z,15.80
2017-07-26T05:40:39.864Z,15.80
2017-07-26T05:43:07.456Z,15.80
2017-07-26T05:45:34.988Z,15.80
2017-07-26T05:48:02.488Z,15.80
2017-07-26T05:50:29.976Z,15.80
2017-07-26T05:52:57.480Z,15.80
2017-07-26T05:55:24.976Z,15.90
2017-07-26T05:57:53.255Z,15.90
2017-07-26T06:00:20.760Z,15.80
2017-07-26T06:02:48.275Z,15.90
2017-07-26T06:05:15.764Z,16.00
2017-07-26T06:07:44.047Z,16.00
2017-07-26T06:10:11.541Z,15.90
2017-07-26T06:12:39.071Z,16.00
2017-07-26T06:15:06.572Z,16.00
2017-07-26T06:17:34.054Z,15.90
2017-07-26T06:20:01.594Z,16.00
2017-07-26T06:22:29.083Z,16.00
2017-07-26T06:24:56.632Z,16.00
2017-07-26T06:27:24.887Z,16.00
2017-07-26T06:29:53.159Z,16.00
2017-07-26T06:32:21.429Z,16.00
2017-07-26T06:34:48.950Z,15.90
2017-07-26T06:37:16.453Z,16.00
2017-07-26T06:39:43.960Z,16.00
2017-07-26T06:42:11.556Z,16.00
2017-07-26T06:44:39.848Z,16.10
2017-07-26T06:47:07.353Z,16.00
2017-07-26T06:49:34.878Z,16.10
2017-07-26T06:52:02.364Z,16.10
2017-07-26T06:54:29.860Z,16.00
2017-07-26T06:56:57.368Z,16.00
2017-07-26T06:59:24.848Z,16.00
2017-07-26T07:01:52.367Z,16.10
2017-07-26T07:04:19.868Z,16.10
2017-07-26T07:06:47.380Z,16.10
2017-07-26T07:09:14.877Z,16.10
2017-07-26T07:11:42.393Z,16.10
2017-07-26T07:14:09.885Z,16.10
2017-07-26T07:16:37.427Z,16.20
2017-07-26T07:19:04.925Z,16.10
2017-07-26T07:21:32.436Z,16.20
2017-07-26T07:23:59.924Z,16.20
2017-07-26T07:26:27.435Z,16.20
2017-07-26T07:28:54.932Z,16.20
2017-07-26T07:31:22.443Z,16.30
2017-07-26T07:33:49.928Z,16.30
2017-07-26T07:36:17.432Z,16.20
2017-07-26T07:38:44.931Z,16.20
2017-07-26T07:41:12.440Z,16.20
2017-07-26T07:43:39.927Z,16.30
2017-07-26T07:46:07.452Z,16.20
2017-07-26T07:48:34.996Z,16.20
2017-07-26T07:51:02.469Z,16.10
2017-07-26T07:53:29.964Z,16.10
2017-07-26T07:55:57.467Z,16.20
2017-07-26T07:58:24.980Z,16.20
2017-07-26T08:00:52.472Z,16.20
2017-07-26T08:03:19.975Z,16.30
2017-07-26T08:05:47.468Z,16.30
2017-07-26T08:08:14.971Z,16.20
2017-07-26T08:10:42.460Z,16.30
2017-07-26T08:13:09.977Z,16.30
2017-07-26T08:15:38.229Z,16.40
2017-07-26T08:18:06.500Z,16.50
2017-07-26T08:20:34.748Z,16.50
2017-07-26T08:23:02.268Z,16.50
2017-07-26T08:25:29.748Z,16.50
2017-07-26T08:27:57.290Z,16.60
2017-07-26T08:30:25.544Z,16.60
2017-07-26T08:32:53.796Z,16.60
2017-07-26T08:35:21.305Z,16.60
2017-07-26T08:37:48.797Z,16.70
2017-07-26T08:40:16.307Z,16.70
2017-07-26T08:42:43.796Z,16.70
2017-07-26T08:45:11.288Z,16.70
2017-07-26T08:47:38.783Z,16.80
2017-07-26T08:50:06.295Z,16.80
2017-07-26T08:52:34.556Z,16.80
2017-07-26T08:55:02.056Z,16.70
2017-07-26T08:57:29.549Z,16.90
2017-07-26T08:59:57.073Z,16.90
2017-07-26T09:02:24.565Z,16.90
2017-07-26T09:04:52.074Z,17.00
2017-07-26T09:07:20.329Z,17.00
2017-07-26T09:09:47.837Z,16.90
2017-07-26T09:12:15.369Z,17.00
2017-07-26T09:14:42.920Z,17.00
2017-07-26T09:17:10.391Z,17.00
2017-07-26T09:19:37.892Z,16.90
2017-07-26T09:22:06.441Z,17.00
2017-07-26T09:24:33.932Z,16.90
2017-07-26T09:27:01.440Z,17.00
2017-07-26T09:29:28.927Z,17.00
2017-07-26T09:31:56.456Z,17.10
2017-07-26T09:34:23.953Z,17.10
2017-07-26T09:36:51.464Z,17.00
2017-07-26T09:39:19.778Z,17.10
2017-07-26T09:41:47.283Z,17.10
2017-07-26T09:44:14.850Z,17.10
2017-07-26T09:46:42.355Z,17.20
2017-07-26T09:49:10.624Z,17.20
2017-07-26T09:51:38.898Z,17.10
2017-07-26T09:54:06.396Z,17.10
2017-07-26T09:56:33.900Z,17.20
2017-07-26T09:59:01.418Z,17.10
2017-07-26T10:01:28.927Z,17.10
2017-07-26T10:03:56.408Z,17.20
2017-07-26T10:06:23.924Z,17.20
2017-07-26T10:08:52.196Z,17.30
2017-07-26T10:11:19.764Z,17.20
2017-07-26T10:13:47.358Z,17.30
2017-07-26T10:16:14.860Z,17.40
2017-07-26T10:18:42.388Z,17.40
2017-07-26T10:21:09.888Z,17.40
2017-07-26T10:23:37.426Z,17.40
2017-07-26T10:26:04.924Z,17.50
2017-07-26T10:28:32.435Z,17.40
2017-07-26T10:30:59.943Z,17.40
2017-07-26T10:33:27.468Z,17.50
2017-07-26T10:35:54.951Z,17.60
2017-07-26T10:38:22.467Z,17.70
2017-07-26T10:40:50.122Z,17.80
2017-07-26T10:43:17.660Z,17.90
2017-07-26T10:45:45.215Z,18.00
2017-07-26T10:48:12.734Z,18.10
2017-07-26T10:50:40.235Z,18.10
2017-07-26T10:53:10.674Z,18.10
2017-07-26T10:55:38.167Z,18.10
2017-07-26T10:58:05.745Z,18.30
2017-07-26T11:00:33.257Z,18.60
2017-07-26T11:03:00.757Z,19.00
2017-07-26T11:05:28.269Z,19.30
2017-07-26T11:07:55.771Z,19.90
2017-07-26T11:10:23.276Z,20.60
2017-07-26T11:12:50.760Z,21.30
2017-07-26T11:15:18.280Z,21.50
2017-07-26T11:17:46.488Z,21.50
2017-07-26T11:20:14.628Z,21.30
2017-07-26T11:22:42.112Z,20.90
2017-07-26T11:25:09.617Z,20.60
2017-07-26T11:27:37.941Z,20.30
2017-07-26T11:30:05.500Z,20.30
2017-07-26T11:32:32.984Z,20.30
2017-07-26T11:35:00.587Z,20.20
2017-07-26T11:37:28.089Z,20.20
2017-07-26T11:39:55.779Z,20.30
2017-07-26T11:42:23.293Z,20.30
2017-07-26T11:44:50.785Z,20.40
2017-07-26T11:47:21.022Z,20.40
2017-07-26T11:49:48.508Z,20.50
2017-07-26T11:52:16.015Z,20.50
2017-07-26T11:54:43.507Z,20.50
2017-07-26T11:57:10.995Z,20.50
2017-07-26T11:59:38.471Z,20.60
2017-07-26T12:02:05.987Z,20.60
2017-07-26T12:04:33.479Z,20.70
2017-07-26T12:07:00.984Z,20.70
2017-07-26T12:09:28.490Z,20.70
2017-07-26T12:11:56.792Z,20.70
2017-07-26T12:14:24.279Z,20.70
2017-07-26T12:16:52.535Z,20.80
2017-07-26T12:19:20.040Z,20.80
2017-07-26T12:21:47.523Z,20.90
2017-07-26T12:24:16.196Z,21.00
2017-07-26T12:26:44.460Z,21.00
2017-07-26T12:29:12.731Z,21.10
2017-07-26T12:31:40.224Z,21.00
2017-07-26T12:34:07.748Z,21.10
2017-07-26T12:36:35.235Z,21.10
2017-07-26T12:39:02.732Z,21.10
2017-07-26T12:41:30.218Z,21.20
2017-07-26T12:43:58.112Z,21.30
2017-07-26T12:46:25.595Z,21.30
2017-07-26T12:48:53.104Z,21.30
2017-07-26T12:51:20.588Z,21.30
2017-07-26T12:53:48.103Z,21.40
2017-07-26T12:56:15.588Z,21.50
2017-07-26T12:58:43.106Z,21.50
2017-07-26T13:01:10.593Z,21.40
2017-07-26T13:03:38.103Z,21.50
2017-07-26T13:06:05.599Z,21.60
2017-07-26T13:08:33.124Z,21.60
2017-07-26T13:11:00.601Z,21.70
2017-07-26T13:13:28.087Z,21.70
2017-07-26T13:15:56.354Z,21.70
2017-07-26T13:18:24.623Z,21.70
2017-07-26T13:20:52.128Z,21.70
2017-07-26T13:23:19.604Z,21.70
2017-07-26T13:25:47.107Z,21.80
2017-07-26T13:28:14.595Z,21.90
2017-07-26T13:30:42.105Z,22.00
2017-07-26T13:33:09.592Z,22.00
2017-07-26T13:35:37.096Z,22.10
2017-07-26T13:38:04.584Z,22.10
2017-07-26T13:40:32.080Z,22.10
2017-07-26T13:42:59.572Z,22.20
2017-07-26T13:45:27.096Z,22.20
2017-07-26T13:47:54.588Z,22.10
2017-07-26T13:50:22.073Z,22.10
2017-07-26T13:52:49.590Z,22.00
2017-07-26T13:55:17.115Z,22.00
2017-07-26T13:57:44.620Z,21.90
2017-07-26T14:00:12.104Z,21.90
2017-07-26T14:02:39.609Z,21.90
2017-07-26T14:05:07.099Z,21.80
2017-07-26T14:07:34.906Z,21.80
2017-07-26T14:10:02.399Z,21.80
2017-07-26T14:12:29.903Z,21.80
2017-07-26T14:14:57.396Z,21.70
2017-07-26T14:17:25.674Z,21.80
2017-07-26T14:19:53.156Z,21.70
2017-07-26T14:22:20.660Z,21.90
2017-07-26T14:24:48.143Z,21.90
2017-07-26T14:27:15.667Z,22.00
2017-07-26T14:29:43.177Z,22.00
2017-07-26T14:32:10.686Z,22.00
2017-07-26T14:34:38.197Z,22.00
2017-07-26T14:37:05.682Z,22.10
2017-07-26T14:39:33.962Z,22.10
2017-07-26T14:42:01.450Z,22.10
2017-07-26T14:44:29.791Z,22.10
2017-07-26T14:46:57.366Z,22.10
2017-07-26T14:49:24.873Z,22.10
2017-07-26T14:51:52.356Z,22.20
2017-07-26T14:54:19.904Z,22.10
2017-07-26T14:56:47.388Z,22.10
2017-07-26T14:59:14.891Z,22.10
2017-07-26T15:01:42.379Z,22.10
2017-07-26T15:04:09.883Z,22.00
2017-07-26T15:06:37.365Z,22.00
2017-07-26T15:09:05.380Z,22.10
2017-07-26T15:11:32.871Z,22.20
2017-07-26T15:14:00.379Z,22.20
2017-07-26T15:16:28.927Z,22.10
2017-07-26T15:18:56.424Z,22.10
2017-07-26T15:21:23.943Z,22.10
2017-07-26T15:23:52.197Z,22.00
2017-07-26T15:26:20.456Z,22.00
2017-07-26T15:28:48.700Z,22.00
2017-07-26T15:31:17.023Z,22.10
2017-07-26T15:33:44.524Z,22.00
2017-07-26T15:36:12.031Z,22.10
2017-07-26T15:38:39.514Z,22.10
2017-07-26T15:41:07.020Z,22.10
2017-07-26T15:43:34.503Z,22.10
2017-07-26T15:46:02.052Z,22.10
2017-07-26T15:48:29.559Z,22.10
2017-07-26T15:50:57.071Z,22.00
2017-07-26T15:53:24.556Z,22.10
2017-07-26T15:55:52.088Z,22.00
2017-07-26T15:58:19.571Z,22.00
2017-07-26T16:00:47.077Z,22.00
2017-07-26T16:03:14.580Z,22.00
2017-07-26T16:05:42.068Z,22.00
2017-07-26T16:08:09.575Z,21.90
2017-07-26T16:10:37.068Z,22.00
2017-07-26T16:13:04.584Z,22.00
2017-07-26T16:15:32.063Z,22.00
2017-07-26T16:18:00.348Z,22.10
2017-07-26T16:20:27.828Z,22.00
2017-07-26T16:22:56.104Z,22.10
2017-07-26T16:25:23.617Z,22.00
2017-07-26T16:27:51.130Z,22.10
2017-07-26T16:30:18.635Z,22.10
2017-07-26T16:32:46.159Z,22.10
2017-07-26T16:35:14.308Z,22.10
2017-07-26T16:37:41.803Z,22.00
2017-07-26T16:40:09.288Z,22.10
2017-07-26T16:42:36.829Z,22.00
2017-07-26T16:45:04.318Z,22.10
2017-07-26T16:47:31.804Z,22.00
2017-07-26T16:49:59.795Z,22.00
2017-07-26T16:52:28.047Z,21.80
2017-07-26T16:54:56.325Z,21.80
2017-07-26T16:57:23.808Z,21.70
2017-07-26T16:59:51.308Z,21.80
2017-07-26T17:02:19.563Z,21.70
2017-07-26T17:04:47.063Z,21.70
2017-07-26T17:07:14.562Z,21.70
2017-07-26T17:09:42.072Z,21.60
2017-07-26T17:12:09.551Z,21.60
2017-07-26T17:14:37.061Z,21.50
2017-07-26T17:17:04.539Z,21.50
2017-07-26T17:19:32.109Z,21.50
2017-07-26T17:21:59.595Z,21.50
2017-07-26T17:24:27.103Z,21.50
2017-07-26T17:26:54.641Z,21.50
2017-07-26T17:29:22.149Z,21.50
2017-07-26T17:31:49.632Z,21.40
2017-07-26T17:34:17.155Z,21.50
2017-07-26T17:36:44.635Z,21.50
2017-07-26T17:39:12.128Z,21.50
2017-07-26T17:41:39.631Z,21.50
2017-07-26T17:44:07.129Z,21.50
2017-07-26T17:46:35.452Z,21.50
2017-07-26T17:49:03.710Z,21.50
2017-07-26T17:51:31.999Z,21.50
2017-07-26T17:53:59.502Z,21.50
2017-07-26T17:56:27.000Z,21.50
2017-07-26T17:58:54.484Z,21.40
2017-07-26T18:01:21.984Z,21.40
2017-07-26T18:03:49.469Z,21.40
2017-07-26T18:06:16.971Z,21.40
2017-07-26T18:08:44.449Z,21.40
2017-07-26T18:11:12.777Z,21.40
2017-07-26T18:13:40.256Z,21.40
2017-07-26T18:16:07.768Z,21.30
2017-07-26T18:18:35.251Z,21.30
2017-07-26T18:21:02.759Z,21.20
2017-07-26T18:23:30.248Z,21.20
2017-07-26T18:25:57.756Z,21.10
2017-07-26T18:28:25.264Z,21.00
2017-07-26T18:30:52.764Z,21.00
2017-07-26T18:33:20.283Z,21.00
2017-07-26T18:35:47.768Z,21.00
2017-07-26T18:38:15.289Z,21.00
2017-07-26T18:40:42.782Z,20.90
2017-07-26T18:43:10.308Z,20.90
2017-07-26T18:45:37.803Z,20.90
2017-07-26T18:48:05.397Z,20.70
2017-07-26T18:50:32.907Z,20.70
2017-07-26T18:53:00.411Z,20.70
2017-07-26T18:55:27.899Z,20.70
2017-07-26T18:57:56.176Z,20.70
2017-07-26T19:00:23.670Z,20.60
2017-07-26T19:02:51.153Z,20.60
2017-07-26T19:05:18.676Z,20.60
2017-07-26T19:07:47.026Z,20.60
2017-07-26T19:10:14.526Z,20.60
2017-07-26T19:12:42.023Z,20.50
2017-07-26T19:15:09.555Z,20.50
2017-07-26T19:17:37.079Z,20.40
2017-07-26T19:20:04.604Z,20.30
2017-07-26T19:22:32.860Z,20.20
2017-07-26T19:25:00.382Z,20.20
2017-07-26T19:27:27.876Z,20.20
2017-07-26T19:29:55.400Z,20.20
2017-07-26T19:32:22.933Z,20.20
2017-07-26T19:34:50.456Z,20.10
2017-07-26T19:37:17.982Z,20.00
2017-07-26T19:39:45.548Z,20.00
2017-07-26T19:42:13.048Z,19.80
2017-07-26T19:44:40.541Z,19.60
2017-07-26T19:47:08.058Z,19.50
2017-07-26T19:49:35.621Z,19.50
2017-07-26T19:52:03.152Z,19.40
2017-07-26T19:54:30.653Z,19.10
2017-07-26T19:56:58.185Z,18.70
2017-07-26T19:59:25.701Z,18.80
2017-07-26T20:01:53.220Z,18.90
2017-07-26T20:04:20.731Z,18.90
2017-07-26T20:06:48.265Z,18.90
2017-07-26T20:09:15.768Z,18.70
2017-07-26T20:11:43.271Z,18.80
2017-07-26T20:14:10.798Z,18.70
2017-07-26T20:16:38.302Z,18.40
2017-07-26T20:19:05.795Z,18.30
2017-07-26T20:21:33.333Z,18.20
2017-07-26T20:24:00.819Z,18.20
2017-07-26T20:26:28.337Z,18.30
2017-07-26T20:28:55.857Z,18.10
2017-07-26T20:31:23.460Z,18.10
2017-07-26T20:33:50.988Z,18.00
2017-07-26T20:36:18.538Z,18.10
2017-07-26T20:38:46.075Z,17.90
2017-07-26T20:41:13.612Z,18.00
2017-07-26T20:43:41.106Z,17.90
2017-07-26T20:46:08.637Z,18.00
2017-07-26T20:48:36.180Z,17.90
2017-07-26T20:51:03.681Z,17.60
2017-07-26T20:53:31.212Z,17.60
2017-07-26T20:55:58.719Z,17.60
2017-07-26T20:58:26.222Z,17.70
2017-07-26T21:00:53.716Z,17.70
2017-07-26T21:03:21.221Z,17.70
2017-07-26T21:05:48.740Z,17.80
2017-07-26T21:08:16.243Z,17.90
2017-07-26T21:10:43.748Z,17.90
2017-07-26T21:13:11.264Z,17.80
2017-07-26T21:15:38.764Z,17.70
2017-07-26T21:18:06.265Z,17.70
2017-07-26T21:20:33.752Z,17.80
2017-07-26T21:23:01.261Z,17.80
2017-07-26T21:25:28.740Z,17.80
2017-07-26T21:27:56.250Z,17.80
2017-07-26T21:30:23.738Z,17.60
2017-07-26T21:32:52.011Z,17.70
2017-07-26T21:35:19.483Z,17.60
2017-07-26T21:37:47.036Z,17.60
2017-07-26T21:40:14.520Z,17.70
2017-07-26T21:42:41.991Z,17.60
2017-07-26T21:45:09.498Z,17.40
2017-07-26T21:47:36.999Z,17.30
2017-07-26T21:50:04.508Z,17.20
2017-07-26T21:52:32.017Z,17.40
2017-07-26T21:54:59.516Z,17.50
2017-07-26T21:57:27.029Z,17.40
2017-07-26T21:59:54.541Z,17.40
2017-07-26T22:02:22.031Z,17.30
2017-07-26T22:04:49.539Z,17.30
2017-07-26T22:07:17.024Z,17.30
2017-07-26T22:09:44.543Z,17.20
2017-07-26T22:12:12.054Z,17.10
2017-07-26T22:14:39.608Z,17.00
2017-07-26T22:17:07.091Z,16.90
2017-07-26T22:19:34.595Z,17.00
2017-07-26T22:22:02.068Z,16.90
2017-07-26T22:24:29.582Z,16.90
2017-07-26T22:26:57.083Z,17.00
2017-07-26T22:29:24.603Z,16.80
2017-07-26T22:31:52.086Z,16.70
2017-07-26T22:34:19.580Z,16.80
2017-07-26T22:36:47.085Z,16.80
2017-07-26T22:39:14.584Z,16.70
2017-07-26T22:41:42.093Z,16.70
2017-07-26T22:44:09.578Z,16.80
2017-07-26T22:46:37.084Z,16.70
2017-07-26T22:49:04.564Z,16.70
2017-07-26T22:51:32.078Z,16.60
2017-07-26T22:53:59.567Z,16.60
2017-07-26T22:56:27.136Z,16.60
2017-07-26T22:58:54.615Z,16.60
2017-07-26T23:01:22.128Z,16.50
2017-07-26T23:03:49.628Z,16.60
2017-07-26T23:06:17.132Z,16.60
2017-07-26T23:08:44.621Z,16.50
2017-07-26T23:11:12.127Z,16.60
2017-07-26T23:13:39.607Z,16.70
2017-07-26T23:16:07.135Z,16.70
2017-07-26T23:18:34.633Z,16.30
2017-07-26T23:21:02.171Z,16.40
2017-07-26T23:23:29.651Z,16.40
2017-07-26T23:25:58.004Z,16.40
2017-07-26T23:28:25.489Z,16.30
2017-07-26T23:30:52.976Z,16.40
2017-07-26T23:33:21.261Z,16.50
2017-07-26T23:35:48.745Z,16.40
2017-07-26T23:38:16.244Z,16.40
2017-07-26T23:40:43.736Z,16.40
2017-07-26T23:43:11.259Z,16.60
2017-07-26T23:45:38.743Z,16.50
2017-07-26T23:48:06.240Z,16.50
2017-07-26T23:50:33.722Z,16.40
2017-07-26T23:53:01.236Z,16.50
2017-07-26T23:55:28.735Z,16.40
2017-07-26T23:57:56.252Z,16.50
